Campina do Monte Alegre, Brazil
Current Conditions -  °F | °C
As of 2:00 PM on Thursday 18 Dec 2014 (Local Time) from SBKP Reporting Station
Scattered Clouds Scattered Clouds  
Wind Chill: 90°   Ceiling: Unl
Heat Index: 90°   Visibility: 6mi
Dew Point: 57°   Wind: 6mph
Humidity: 33%   Direction: 270°W
Pressure: 29.88"   Gusts: NA
Location:  23.58°S, 48.47°W
Report Text: SBKP 181600Z 27005KT 9999 SCT040 32/14 Q1012
Loading
Personal Weather Stations






























Interactive Weather Map New forecast layout! Learn more

10-Day Weather Forecast

Advertisements
Track Severe Weather on mobile